createdAt,value
2022-11-11T00:01:00.964Z,2.80
2022-11-11T00:03:28.018Z,2.30
2022-11-11T00:05:54.666Z,2.40
2022-11-11T00:08:21.273Z,2.90
2022-11-11T00:10:47.659Z,2.90
2022-11-11T00:13:13.975Z,2.87
2022-11-11T00:15:40.414Z,3.10
2022-11-11T00:18:25.798Z,2.93
2022-11-11T00:21:11.239Z,2.90
2022-11-11T00:23:56.313Z,2.87
2022-11-11T00:26:39.249Z,3.23
2022-11-11T00:29:06.545Z,3.53
2022-11-11T00:31:34.875Z,3.40
2022-11-11T00:34:01.386Z,3.77
2022-11-11T00:36:27.792Z,3.50
2022-11-11T00:38:55.853Z,3.53
2022-11-11T00:41:23.137Z,3.93
2022-11-11T00:43:49.513Z,4.47
2022-11-11T00:46:35.122Z,4.93
2022-11-11T00:49:20.275Z,3.97
2022-11-11T00:51:46.671Z,5.10
2022-11-11T00:54:13.153Z,4.03
2022-11-11T00:56:39.889Z,4.73
2022-11-11T00:59:07.460Z,4.50
2022-11-11T01:01:34.730Z,3.93
2022-11-11T01:04:01.395Z,4.63
2022-11-11T01:06:28.351Z,4.50
2022-11-11T01:08:54.797Z,3.90
2022-11-11T01:11:22.678Z,4.97
2022-11-11T01:13:49.534Z,5.47
2022-11-11T01:16:20.873Z,5.10
2022-11-11T01:18:47.667Z,4.73
2022-11-11T01:21:15.385Z,4.73
2022-11-11T01:23:42.760Z,4.67
2022-11-11T01:26:30.630Z,5.17
2022-11-11T01:28:58.436Z,4.90
2022-11-11T01:31:25.794Z,4.40
2022-11-11T01:33:52.242Z,4.57
2022-11-11T01:36:21.070Z,5.07
2022-11-11T01:38:51.656Z,5.07
2022-11-11T01:41:34.523Z,5.23
2022-11-11T01:44:02.002Z,4.90
2022-11-11T01:46:43.393Z,4.50
2022-11-11T01:49:36.233Z,4.73
2022-11-11T01:52:21.476Z,4.87
2022-11-11T01:54:47.944Z,4.80
2022-11-11T01:57:14.399Z,5.27
2022-11-11T01:59:43.176Z,4.37
2022-11-11T02:02:17.766Z,5.13
2022-11-11T02:05:03.633Z,4.80
2022-11-11T02:07:31.207Z,4.57
2022-11-11T02:09:58.015Z,4.73
2022-11-11T02:12:43.168Z,5.33
2022-11-11T02:15:09.768Z,5.13
2022-11-11T02:17:36.373Z,4.70
2022-11-11T02:20:03.596Z,4.60
2022-11-11T02:22:36.286Z,5.43
2022-11-11T02:25:03.700Z,4.47
2022-11-11T02:27:31.220Z,5.23
2022-11-11T02:29:59.475Z,4.77
2022-11-11T02:32:25.982Z,5.47
2022-11-11T02:34:52.344Z,5.60
2022-11-11T02:37:21.445Z,5.33
2022-11-11T02:40:03.157Z,5.13
2022-11-11T02:42:30.895Z,4.93
2022-11-11T02:44:59.061Z,4.97
2022-11-11T02:47:26.295Z,5.20
2022-11-11T02:49:52.915Z,4.30
2022-11-11T02:52:19.462Z,4.97
2022-11-11T02:54:46.648Z,4.63
2022-11-11T02:57:13.099Z,4.10
2022-11-11T02:59:40.618Z,4.57
2022-11-11T03:02:08.184Z,4.60
2022-11-11T03:04:35.344Z,4.13
2022-11-11T03:07:01.760Z,4.67
2022-11-11T03:09:28.680Z,4.73
2022-11-11T03:11:55.235Z,5.03
2022-11-11T03:14:21.799Z,4.00
2022-11-11T03:17:06.744Z,4.80
2022-11-11T03:19:33.435Z,4.87
2022-11-11T03:25:05.269Z,4.47
2022-11-11T03:27:31.601Z,4.33
2022-11-11T03:29:57.927Z,4.73
2022-11-11T03:32:24.254Z,4.40
2022-11-11T03:34:50.657Z,5.10
2022-11-11T03:37:35.554Z,4.60
2022-11-11T03:40:01.913Z,4.83
2022-11-11T03:42:28.234Z,4.73
2022-11-11T03:44:54.573Z,4.83
2022-11-11T03:47:21.069Z,5.97
2022-11-11T03:49:47.426Z,4.80
2022-11-11T03:52:14.021Z,4.60
2022-11-11T03:54:40.454Z,5.33
2022-11-11T03:57:25.250Z,5.27
2022-11-11T03:59:51.598Z,4.80
2022-11-11T04:02:36.424Z,5.13
2022-11-11T04:05:21.294Z,4.53
2022-11-11T04:08:06.079Z,4.50
2022-11-11T04:10:32.499Z,5.50
2022-11-11T04:13:17.684Z,5.63
2022-11-11T04:16:02.610Z,4.87
2022-11-11T04:18:47.502Z,5.30
2022-11-11T04:21:32.353Z,4.80
2022-11-11T04:23:58.697Z,5.27
2022-11-11T04:26:25.050Z,5.20
2022-11-11T04:29:17.444Z,5.27
2022-11-11T04:32:02.218Z,5.13
2022-11-11T04:34:28.575Z,6.03
2022-11-11T04:36:55.028Z,6.27
2022-11-11T04:39:39.845Z,5.03
2022-11-11T04:42:08.785Z,5.43
2022-11-11T04:44:53.811Z,5.30
2022-11-11T04:47:20.166Z,5.90
2022-11-11T04:49:46.507Z,6.23
2022-11-11T04:52:27.970Z,5.70
2022-11-11T04:55:17.823Z,5.97
2022-11-11T04:57:47.876Z,5.53
2022-11-11T05:00:15.677Z,6.10
2022-11-11T05:03:01.054Z,6.13
2022-11-11T05:05:27.902Z,6.30
2022-11-11T05:08:13.474Z,5.60
2022-11-11T05:10:39.877Z,6.07
2022-11-11T05:13:25.214Z,5.87
2022-11-11T05:16:10.651Z,6.20
2022-11-11T05:18:55.491Z,6.60
2022-11-11T05:21:25.585Z,6.57
2022-11-11T05:24:10.655Z,5.97
2022-11-11T05:26:37.036Z,6.37
2022-11-11T05:29:03.542Z,7.23
2022-11-11T05:31:30.198Z,7.70
2022-11-11T05:33:56.800Z,6.57
2022-11-11T05:36:23.362Z,6.37
2022-11-11T05:38:49.720Z,6.53
2022-11-11T05:41:16.051Z,6.93
2022-11-11T05:43:42.405Z,7.10
2022-11-11T05:46:08.728Z,7.27
2022-11-11T05:48:35.090Z,6.63
2022-11-11T05:51:01.684Z,6.70
2022-11-11T05:53:28.472Z,8.30
2022-11-11T05:55:54.861Z,7.93
2022-11-11T05:58:21.220Z,7.53
2022-11-11T06:00:47.784Z,7.77
2022-11-11T06:03:14.136Z,8.53
2022-11-11T06:05:40.528Z,7.93
2022-11-11T06:08:06.873Z,7.47
2022-11-11T06:10:33.323Z,7.87
2022-11-11T06:13:04.927Z,8.77
2022-11-11T06:15:33.127Z,8.93
2022-11-11T06:17:59.551Z,8.67
2022-11-11T06:20:25.958Z,9.70
2022-11-11T06:22:58.500Z,9.27
2022-11-11T06:25:47.826Z,9.97
2022-11-11T06:28:14.736Z,9.57
2022-11-11T06:30:51.080Z,9.77
2022-11-11T06:33:17.939Z,8.97
2022-11-11T06:35:45.370Z,9.27
2022-11-11T06:38:11.838Z,9.30
2022-11-11T06:40:38.216Z,9.90
2022-11-11T06:43:04.597Z,9.93
2022-11-11T06:45:31.634Z,10.27
2022-11-11T06:47:58.111Z,10.53
2022-11-11T06:50:24.498Z,10.10
2022-11-11T06:52:50.845Z,10.73
2022-11-11T06:55:17.189Z,10.07
2022-11-11T06:57:43.615Z,10.73
2022-11-11T07:00:10.362Z,11.33
2022-11-11T07:02:36.790Z,11.70
2022-11-11T07:05:03.564Z,10.40
2022-11-11T07:07:30.040Z,12.23
2022-11-11T07:09:56.473Z,12.47
2022-11-11T07:12:23.039Z,11.70
2022-11-11T07:14:49.521Z,12.30
2022-11-11T07:17:15.933Z,12.77
2022-11-11T07:19:42.576Z,12.50
2022-11-11T07:22:09.143Z,11.97
2022-11-11T07:24:35.669Z,12.27
2022-11-11T07:27:02.353Z,11.70
2022-11-11T07:29:29.390Z,12.00
2022-11-11T07:31:55.804Z,13.80
2022-11-11T07:34:22.213Z,13.87
2022-11-11T07:36:48.554Z,13.73
2022-11-11T07:39:14.863Z,12.87
2022-11-11T07:41:41.447Z,13.13
2022-11-11T07:44:07.955Z,12.07
2022-11-11T07:46:34.310Z,13.63
2022-11-11T07:49:00.664Z,14.47
2022-11-11T07:51:27.032Z,13.10
2022-11-11T07:53:53.372Z,13.23
2022-11-11T07:56:19.695Z,12.83
2022-11-11T07:58:46.022Z,13.47
2022-11-11T08:01:12.459Z,13.70
2022-11-11T08:03:49.714Z,14.30
2022-11-11T08:06:20.144Z,13.63
2022-11-11T08:08:46.525Z,14.60
2022-11-11T08:11:13.423Z,13.57
2022-11-11T08:13:43.669Z,15.03
2022-11-11T08:16:14.990Z,15.03
2022-11-11T08:18:41.673Z,13.10
2022-11-11T08:21:09.435Z,15.73
2022-11-11T08:24:10.579Z,14.37
2022-11-11T08:26:29.278Z,16.17
2022-11-11T08:28:55.853Z,14.20
2022-11-11T08:31:22.177Z,14.63
2022-11-11T08:33:48.842Z,14.53
2022-11-11T08:36:20.462Z,15.37
2022-11-11T08:38:47.486Z,15.23
2022-11-11T08:41:14.073Z,15.17
2022-11-11T08:43:40.423Z,14.83
2022-11-11T08:46:06.924Z,14.43
2022-11-11T08:48:33.438Z,14.57
2022-11-11T08:50:59.829Z,15.67
2022-11-11T08:53:27.016Z,14.83
2022-11-11T08:55:54.131Z,15.03
2022-11-11T08:58:20.894Z,13.70
2022-11-11T09:00:47.428Z,14.23
2022-11-11T09:03:13.901Z,12.80
2022-11-11T09:05:40.870Z,14.37
2022-11-11T09:08:08.046Z,13.83
2022-11-11T09:10:35.058Z,13.60
2022-11-11T09:13:01.720Z,13.47
2022-11-11T09:15:28.834Z,14.50
2022-11-11T09:17:55.181Z,13.47
2022-11-11T09:20:24.990Z,14.23
2022-11-11T09:22:53.148Z,14.10
2022-11-11T09:25:20.066Z,15.03
2022-11-11T09:27:56.612Z,14.27
2022-11-11T09:30:23.209Z,14.40
2022-11-11T09:32:49.626Z,13.40
2022-11-11T09:35:16.119Z,14.93
2022-11-11T09:37:42.517Z,15.03
2022-11-11T09:40:17.116Z,14.07
2022-11-11T09:42:55.000Z,13.27
2022-11-11T09:45:26.712Z,15.10
2022-11-11T09:48:24.992Z,13.50
2022-11-11T09:50:54.636Z,13.10
2022-11-11T09:53:33.371Z,15.20
2022-11-11T09:56:32.408Z,14.67
2022-11-11T09:59:03.093Z,13.87
2022-11-11T10:01:31.255Z,15.03
2022-11-11T10:04:05.616Z,14.63
2022-11-11T10:06:33.631Z,14.47
2022-11-11T10:09:03.066Z,14.73
2022-11-11T10:11:55.983Z,13.57
2022-11-11T10:14:22.380Z,14.80
2022-11-11T10:17:00.858Z,13.70
2022-11-11T10:19:27.178Z,12.97
2022-11-11T10:22:12.361Z,14.73
2022-11-11T10:24:47.035Z,13.40
2022-11-11T10:27:20.956Z,14.37
2022-11-11T10:29:48.503Z,12.93
2022-11-11T10:32:23.208Z,13.70
2022-11-11T10:34:49.628Z,12.63
2022-11-11T10:37:21.502Z,13.97
2022-11-11T10:40:03.705Z,13.83
2022-11-11T10:42:30.045Z,13.13
2022-11-11T10:45:03.830Z,12.93
2022-11-11T10:47:45.529Z,13.10
2022-11-11T10:50:21.249Z,13.20
2022-11-11T10:53:07.884Z,12.87
2022-11-11T10:55:45.471Z,12.73
2022-11-11T10:58:11.785Z,12.50
2022-11-11T11:00:43.798Z,12.73
2022-11-11T11:03:16.130Z,13.30
2022-11-11T11:05:46.358Z,13.07
2022-11-11T11:08:14.765Z,12.83
2022-11-11T11:10:43.139Z,13.47
2022-11-11T11:13:13.084Z,12.80
2022-11-11T11:15:41.230Z,12.80
2022-11-11T11:18:10.883Z,13.73
2022-11-11T11:20:37.351Z,12.83
2022-11-11T11:23:03.935Z,12.03
2022-11-11T11:25:32.769Z,12.13
2022-11-11T11:28:08.721Z,12.10
2022-11-11T11:30:35.073Z,11.57
2022-11-11T11:33:02.605Z,13.80
2022-11-11T11:35:31.904Z,12.77
2022-11-11T11:37:58.501Z,12.67
2022-11-11T11:40:24.894Z,13.07
2022-11-11T11:42:51.244Z,12.07
2022-11-11T11:45:29.307Z,12.37
2022-11-11T11:48:31.053Z,13.27
2022-11-11T11:51:09.280Z,12.53
2022-11-11T11:53:38.429Z,11.83
2022-11-11T11:56:15.406Z,12.50
2022-11-11T11:58:58.663Z,12.77
2022-11-11T12:01:30.710Z,12.47
2022-11-11T12:04:04.133Z,13.00
2022-11-11T12:06:30.438Z,12.67
2022-11-11T12:08:56.763Z,13.63
2022-11-11T12:11:28.831Z,15.80
2022-11-11T12:14:14.073Z,12.60
2022-11-11T12:16:46.882Z,12.53
2022-11-11T12:19:25.730Z,13.37
2022-11-11T12:22:04.886Z,14.00
2022-11-11T12:24:42.871Z,12.97
2022-11-11T12:27:25.461Z,13.03
2022-11-11T12:30:00.927Z,13.60
2022-11-11T12:32:48.957Z,12.83
2022-11-11T12:35:34.766Z,13.93
2022-11-11T12:38:39.466Z,13.23
2022-11-11T12:41:23.753Z,13.23
2022-11-11T12:43:52.903Z,12.70
2022-11-11T12:46:26.853Z,13.47
2022-11-11T12:48:53.201Z,11.30
2022-11-11T12:51:19.505Z,11.97
2022-11-11T12:54:00.781Z,13.37
2022-11-11T12:56:38.792Z,11.40
2022-11-11T12:59:20.346Z,10.73
2022-11-11T13:02:05.388Z,11.97
2022-11-11T13:04:51.976Z,11.80
2022-11-11T13:07:32.347Z,12.83
2022-11-11T13:10:08.486Z,12.13
2022-11-11T13:12:43.815Z,11.73
2022-11-11T13:15:13.677Z,12.37
2022-11-11T13:17:40.140Z,11.77
2022-11-11T13:20:13.653Z,12.60
2022-11-11T13:22:40.065Z,12.10
2022-11-11T13:25:09.671Z,12.90
2022-11-11T13:27:45.368Z,12.53
2022-11-11T13:30:30.651Z,12.70
2022-11-11T13:33:02.489Z,12.87
2022-11-11T13:35:37.982Z,13.40
2022-11-11T13:38:04.582Z,12.37
2022-11-11T13:40:33.754Z,12.47
2022-11-11T13:43:00.386Z,12.10
2022-11-11T13:45:49.487Z,14.07
2022-11-11T13:48:21.705Z,13.57
2022-11-11T13:50:48.097Z,12.27
2022-11-11T13:53:16.507Z,12.43
2022-11-11T13:55:43.876Z,14.53
2022-11-11T13:58:28.713Z,13.30
2022-11-11T14:00:59.909Z,13.63
2022-11-11T14:03:26.659Z,13.73
2022-11-11T14:06:13.261Z,13.50
2022-11-11T14:08:45.746Z,13.30
2022-11-11T14:11:24.356Z,13.60
2022-11-11T14:13:51.352Z,13.30
2022-11-11T14:16:37.633Z,12.97
2022-11-11T14:19:18.920Z,12.93
2022-11-11T14:21:59.145Z,12.70
2022-11-11T14:24:39.575Z,13.10
2022-11-11T14:27:09.053Z,13.43
2022-11-11T14:29:47.913Z,12.67
2022-11-11T14:32:14.228Z,12.93
2022-11-11T14:35:00.844Z,13.33
2022-11-11T14:37:33.213Z,13.23
2022-11-11T14:40:00.230Z,13.93
2022-11-11T14:42:35.445Z,13.90
2022-11-11T14:45:02.514Z,14.17
2022-11-11T14:47:34.831Z,13.50
2022-11-11T14:50:01.502Z,13.07
2022-11-11T14:52:41.225Z,13.33
2022-11-11T14:55:23.028Z,12.83
2022-11-11T14:57:57.149Z,12.37
2022-11-11T15:00:24.997Z,12.67
2022-11-11T15:02:53.320Z,12.80
2022-11-11T15:05:34.823Z,13.07
2022-11-11T15:08:23.266Z,12.30
2022-11-11T15:10:58.854Z,12.70
2022-11-11T15:13:30.967Z,13.00
2022-11-11T15:16:05.345Z,12.17
2022-11-11T15:18:51.093Z,12.60
2022-11-11T15:21:23.252Z,12.40
2022-11-11T15:23:56.773Z,12.63
2022-11-11T15:26:23.205Z,12.63
2022-11-11T15:28:49.520Z,12.60
2022-11-11T15:31:28.092Z,12.60
2022-11-11T15:33:58.656Z,12.97
2022-11-11T15:36:36.775Z,11.93
2022-11-11T15:39:10.336Z,11.97
2022-11-11T15:41:38.321Z,12.30
2022-11-11T15:44:09.398Z,12.70
2022-11-11T15:46:40.360Z,11.87
2022-11-11T15:49:11.950Z,11.43
2022-11-11T15:51:38.684Z,12.40
2022-11-11T15:54:20.131Z,12.63
2022-11-11T15:56:46.493Z,12.67
2022-11-11T15:59:36.443Z,11.23
2022-11-11T16:02:07.390Z,12.97
2022-11-11T16:04:55.050Z,12.33
2022-11-11T16:07:40.366Z,11.87
2022-11-11T16:10:08.476Z,12.47
2022-11-11T16:12:57.865Z,11.37
2022-11-11T16:15:44.126Z,12.83
2022-11-11T16:18:14.501Z,12.23
2022-11-11T16:20:43.695Z,12.17
2022-11-11T16:23:13.800Z,12.47
2022-11-11T16:25:40.202Z,11.20
2022-11-11T16:28:06.764Z,11.13
2022-11-11T16:30:34.146Z,11.27
2022-11-11T16:33:01.187Z,11.13
2022-11-11T16:35:36.304Z,12.67
2022-11-11T16:38:04.138Z,11.67
2022-11-11T16:40:33.645Z,16.57
2022-11-11T16:43:17.682Z,19.63
2022-11-11T16:45:53.302Z,12.30
2022-11-11T16:48:31.681Z,11.67
2022-11-11T16:51:02.050Z,12.23
2022-11-11T16:53:35.226Z,11.97
2022-11-11T16:56:02.737Z,12.10
2022-11-11T16:58:29.397Z,11.63
2022-11-11T17:01:03.110Z,12.80
2022-11-11T17:03:30.204Z,12.37
2022-11-11T17:06:00.628Z,11.73
2022-11-11T17:08:37.174Z,12.00
2022-11-11T17:11:04.640Z,11.03
2022-11-11T17:13:33.469Z,12.00
2022-11-11T17:16:04.420Z,10.17
2022-11-11T17:18:35.294Z,11.43
2022-11-11T17:21:02.175Z,11.27
2022-11-11T17:23:28.634Z,11.27
2022-11-11T17:25:56.199Z,11.90
2022-11-11T17:28:22.746Z,12.13
2022-11-11T17:30:49.072Z,12.30
2022-11-11T17:33:15.486Z,16.00
2022-11-11T17:35:49.621Z,22.63
2022-11-11T17:38:15.954Z,15.87
2022-11-11T17:40:46.649Z,12.60
2022-11-11T17:43:13.494Z,12.17
2022-11-11T17:45:40.234Z,11.60
2022-11-11T17:48:07.288Z,12.13
2022-11-11T17:50:33.633Z,11.87
2022-11-11T17:52:59.956Z,12.93
2022-11-11T17:55:26.279Z,13.40
2022-11-11T17:57:52.676Z,11.20
2022-11-11T18:00:19.191Z,11.93
2022-11-11T18:02:45.578Z,11.60
2022-11-11T18:05:11.955Z,11.67
2022-11-11T18:07:42.591Z,12.90
2022-11-11T18:10:11.817Z,12.53
2022-11-11T18:12:38.217Z,11.63
2022-11-11T18:15:05.401Z,12.33
2022-11-11T18:17:31.753Z,12.47
2022-11-11T18:19:58.094Z,11.80
2022-11-11T18:22:24.563Z,12.37
2022-11-11T18:24:50.913Z,11.57
2022-11-11T18:27:17.370Z,10.77
2022-11-11T18:29:43.730Z,10.97
2022-11-11T18:32:10.546Z,11.20
2022-11-11T18:34:36.947Z,13.73
2022-11-11T18:37:03.327Z,12.17
2022-11-11T18:39:29.676Z,13.33
2022-11-11T18:41:56.016Z,11.83
2022-11-11T18:44:22.494Z,13.83
2022-11-11T18:46:48.932Z,13.87
2022-11-11T18:49:15.560Z,13.23
2022-11-11T18:51:42.249Z,12.80
2022-11-11T18:54:08.701Z,13.50
2022-11-11T18:56:36.182Z,13.80
2022-11-11T18:59:03.249Z,12.97
2022-11-11T19:01:31.027Z,13.23
2022-11-11T19:03:59.061Z,12.40
2022-11-11T19:06:26.773Z,13.60
2022-11-11T19:08:57.217Z,34.90
2022-11-11T19:11:24.010Z,28.57
2022-11-11T19:13:50.461Z,16.43
2022-11-11T19:16:18.140Z,13.83
2022-11-11T19:18:44.677Z,13.50
2022-11-11T19:21:15.181Z,12.60
2022-11-11T19:23:42.689Z,16.20
2022-11-11T19:26:09.698Z,13.87
2022-11-11T19:28:36.630Z,15.77
2022-11-11T19:31:08.670Z,14.87
2022-11-11T19:33:36.057Z,21.20
2022-11-11T19:36:03.868Z,15.73
2022-11-11T19:38:30.961Z,16.03
2022-11-11T19:40:57.330Z,16.00
2022-11-11T19:43:24.983Z,15.87
2022-11-11T19:45:51.865Z,15.33
2022-11-11T19:48:18.187Z,15.17
2022-11-11T19:50:44.589Z,16.47
2022-11-11T19:53:11.777Z,16.77
2022-11-11T19:55:38.105Z,15.90
2022-11-11T19:58:04.476Z,14.80
2022-11-11T20:00:30.835Z,15.93
2022-11-11T20:02:57.146Z,15.47
2022-11-11T20:05:23.557Z,15.53
2022-11-11T20:07:53.604Z,14.93
2022-11-11T20:10:19.953Z,15.80
2022-11-11T20:12:46.296Z,17.53
2022-11-11T20:15:12.700Z,17.03
2022-11-11T20:17:39.129Z,16.60
2022-11-11T20:20:05.834Z,18.40
2022-11-11T20:22:32.190Z,17.33
2022-11-11T20:24:58.527Z,18.03
2022-11-11T20:27:24.920Z,15.80
2022-11-11T20:29:51.294Z,18.07
2022-11-11T20:32:17.878Z,15.93
2022-11-11T20:34:44.267Z,16.93
2022-11-11T20:37:10.628Z,17.77
2022-11-11T20:39:36.957Z,15.40
2022-11-11T20:42:03.379Z,17.17
2022-11-11T20:44:29.725Z,16.43
2022-11-11T20:46:56.134Z,16.50
2022-11-11T20:49:22.500Z,15.23
2022-11-11T20:51:48.837Z,15.53
2022-11-11T20:54:15.185Z,13.83
2022-11-11T20:56:41.591Z,15.13
2022-11-11T20:59:07.981Z,12.67
2022-11-11T21:01:34.464Z,13.97
2022-11-11T21:04:00.928Z,13.53
2022-11-11T21:06:27.729Z,13.30
2022-11-11T21:08:54.187Z,13.53
2022-11-11T21:11:21.749Z,13.03
2022-11-11T21:13:48.370Z,12.73
2022-11-11T21:16:17.650Z,12.43
2022-11-11T21:18:44.593Z,12.97
2022-11-11T21:21:24.687Z,13.37
2022-11-11T21:23:55.494Z,12.77
2022-11-11T21:26:21.826Z,11.93
2022-11-11T21:28:48.168Z,12.00
2022-11-11T21:31:20.057Z,11.67
2022-11-11T21:33:53.654Z,12.27
2022-11-11T21:36:20.404Z,11.87
2022-11-11T21:38:47.143Z,12.20
2022-11-11T21:41:20.556Z,12.40
2022-11-11T21:43:47.493Z,12.23
2022-11-11T21:46:15.529Z,12.40
2022-11-11T21:48:42.011Z,12.10
2022-11-11T21:51:08.359Z,12.80
2022-11-11T21:53:35.236Z,11.97
2022-11-11T21:56:02.581Z,11.70
2022-11-11T21:58:29.277Z,11.17
2022-11-11T22:01:02.119Z,11.90
2022-11-11T22:03:28.458Z,12.77
2022-11-11T22:05:54.777Z,12.57
2022-11-11T22:08:21.125Z,11.73
2022-11-11T22:10:47.778Z,11.63
2022-11-11T22:13:14.130Z,11.63
2022-11-11T22:15:40.553Z,12.23
2022-11-11T22:18:06.988Z,11.13
2022-11-11T22:20:33.345Z,11.37
2022-11-11T22:22:59.692Z,11.70
2022-11-11T22:25:27.563Z,11.73
2022-11-11T22:27:54.217Z,11.90
2022-11-11T22:30:20.646Z,11.93
2022-11-11T22:32:46.989Z,11.10
2022-11-11T22:35:13.802Z,12.17
2022-11-11T22:37:40.227Z,11.53
2022-11-11T22:40:06.941Z,10.77
2022-11-11T22:42:33.285Z,12.07
2022-11-11T22:44:59.629Z,14.47
2022-11-11T22:47:26.996Z,12.77
2022-11-11T22:49:53.469Z,12.73
2022-11-11T22:52:19.809Z,11.73
2022-11-11T22:54:46.179Z,11.27
2022-11-11T22:57:12.538Z,12.93
2022-11-11T22:59:38.949Z,11.67
2022-11-11T23:02:05.287Z,12.17
2022-11-11T23:04:31.622Z,13.97
2022-11-11T23:06:57.999Z,12.40
2022-11-11T23:09:24.354Z,12.63
2022-11-11T23:11:50.934Z,12.83
2022-11-11T23:14:17.288Z,13.17
2022-11-11T23:16:43.726Z,12.10
2022-11-11T23:19:10.090Z,12.90
2022-11-11T23:21:36.458Z,12.20
2022-11-11T23:24:02.876Z,12.73
2022-11-11T23:26:33.022Z,12.40
2022-11-11T23:28:59.605Z,14.57
2022-11-11T23:31:30.781Z,13.13
2022-11-11T23:33:58.609Z,12.83
2022-11-11T23:36:25.806Z,14.17
2022-11-11T23:38:52.421Z,13.63
2022-11-11T23:41:18.781Z,13.43
2022-11-11T23:43:45.128Z,13.80
2022-11-11T23:46:11.955Z,14.37
2022-11-11T23:48:38.723Z,14.20
2022-11-11T23:51:05.176Z,13.73
2022-11-11T23:53:31.951Z,14.17
2022-11-11T23:55:58.510Z,14.33
2022-11-11T23:58:25.194Z,14.60
